Time;durP1;ratioP1;P1;durP2;ratioP2;P2;SDS_P1;SDS_P2;PMS_P1;PMS_P2;Temp;Humidity;BMP_temperature;BMP_pressure;BME280_temperature;BME280_humidity;BME280_pressure;Samples;Min_cycle;Max_cycle;Signal;HPM_P1;HPM_P2
2022/09/01 00:02:07;;;;;;;7.60;5.82;;;16.20;99.90;;;;;;4126803;28;20545;-61
2022/09/01 00:04:11;;;;;;;10.52;6.85;;;16.30;99.90;;;;;;4126408;28;20023;-62
2022/09/01 00:06:12;;;;;;;10.25;6.72;;;16.30;99.90;;;;;;4126645;28;20077;-61
2022/09/01 00:08:13;;;;;;;12.73;7.10;;;16.30;99.90;;;;;;4128379;28;20042;-62
2022/09/01 00:10:15;;;;;;;9.98;7.10;;;16.30;99.90;;;;;;4129593;28;20034;-62
2022/09/01 00:12:16;;;;;;;11.38;6.63;;;16.30;99.90;;;;;;4129924;28;20062;-62
2022/09/01 00:14:20;;;;;;;11.05;7.40;;;16.20;99.90;;;;;;4127712;28;20104;-61
2022/09/01 00:16:22;;;;;;;10.25;7.32;;;16.20;99.90;;;;;;4128644;28;20085;-62
2022/09/01 00:18:23;;;;;;;11.25;6.95;;;16.20;99.90;;;;;;4129995;28;20085;-61
2022/09/01 00:20:25;;;;;;;11.00;6.97;;;16.10;99.90;;;;;;4130217;28;20034;-62
2022/09/01 00:22:26;;;;;;;9.90;6.25;;;16.10;99.90;;;;;;4129696;28;20026;-61
2022/09/01 00:24:28;;;;;;;7.95;6.13;;;16.00;99.90;;;;;;4129622;28;20046;-61
2022/09/01 00:26:29;;;;;;;9.07;6.55;;;15.90;99.90;;;;;;4129805;28;20441;-61
2022/09/01 00:28:37;;;;;;;10.82;6.90;;;15.90;99.90;;;;;;4129787;28;20034;-61
2022/09/01 00:30:39;;;;;;;8.30;6.70;;;15.90;99.90;;;;;;4130270;28;20054;-61
2022/09/01 00:32:45;;;;;;;13.43;7.18;;;15.80;99.90;;;;;;4129480;28;20034;-61
2022/09/01 00:34:46;;;;;;;7.93;6.38;;;15.70;99.90;;;;;;4130134;28;20069;-61
2022/09/01 00:36:47;;;;;;;10.57;6.95;;;15.70;99.90;;;;;;4128257;28;20093;-61
2022/09/01 00:38:49;;;;;;;11.75;7.45;;;15.70;99.90;;;;;;4130171;28;20038;-61
2022/09/01 00:40:51;;;;;;;10.60;7.30;;;15.70;99.90;;;;;;4129286;28;20038;-61
2022/09/01 00:42:52;;;;;;;13.15;7.35;;;15.70;99.90;;;;;;4129124;28;20356;-61
2022/09/01 00:44:53;;;;;;;12.75;7.13;;;15.60;99.90;;;;;;4128276;28;20092;-60
2022/09/01 00:46:55;;;;;;;10.30;6.63;;;15.60;99.90;;;;;;4130298;28;20486;-62
2022/09/01 00:49:11;;;;;;;11.57;6.85;;;15.60;99.90;;;;;;4129066;28;20030;-61
2022/09/01 00:51:12;;;;;;;11.70;7.85;;;15.60;99.90;;;;;;4128914;28;20085;-59
2022/09/01 00:53:14;;;;;;;12.00;7.43;;;15.60;99.90;;;;;;4128306;28;20081;-60
2022/09/01 00:55:20;;;;;;;15.35;7.40;;;15.60;99.90;;;;;;4129741;28;20088;-60
2022/09/01 00:57:21;;;;;;;14.10;7.03;;;15.60;99.90;;;;;;4128813;28;20031;-61
2022/09/01 00:59:23;;;;;;;9.75;6.18;;;15.60;99.90;;;;;;4129586;28;20033;-60
2022/09/01 01:01:25;;;;;;;10.27;6.78;;;15.60;99.90;;;;;;4129124;28;20426;-61
2022/09/01 01:03:26;;;;;;;9.45;7.13;;;15.60;99.90;;;;;;4128901;28;20096;-61
2022/09/01 01:05:35;;;;;;;9.25;6.22;;;15.70;99.90;;;;;;4129544;28;20096;-61
2022/09/01 01:07:40;;;;;;;11.80;6.68;;;15.80;99.90;;;;;;4129239;28;20553;-60
2022/09/01 01:09:44;;;;;;;11.65;6.93;;;15.80;99.90;;;;;;4129414;28;20053;-61
2022/09/01 01:11:46;;;;;;;14.07;7.50;;;15.70;99.90;;;;;;4128510;28;20042;-60
2022/09/01 01:13:56;;;;;;;13.15;7.93;;;15.70;99.90;;;;;;4128209;28;20030;-61
2022/09/01 01:15:58;;;;;;;8.93;7.32;;;15.70;99.90;;;;;;4129464;28;20085;-60
2022/09/01 01:17:59;;;;;;;11.77;8.02;;;15.70;99.90;;;;;;4129329;28;20018;-61
2022/09/01 01:25:00;;;;;;;10.63;7.30;;;15.70;99.90;;;;;;4129234;28;20550;-60
2022/09/01 01:27:03;;;;;;;12.60;7.38;;;15.60;99.90;;;;;;4127873;28;20042;-60
2022/09/01 01:29:05;;;;;;;12.68;8.07;;;15.60;99.90;;;;;;4128868;28;20140;-61
2022/09/01 01:31:13;;;;;;;11.13;7.45;;;15.60;99.90;;;;;;4128704;28;20054;-61
2022/09/01 01:33:16;;;;;;;15.23;7.20;;;15.50;99.90;;;;;;4127836;28;20104;-61
2022/09/01 01:35:20;;;;;;;13.50;8.13;;;15.50;99.90;;;;;;4129350;28;20050;-61
2022/09/01 01:37:23;;;;;;;10.07;7.28;;;15.50;99.90;;;;;;4128393;28;20038;-61
2022/09/01 01:39:25;;;;;;;12.25;7.25;;;15.50;99.90;;;;;;4129198;28;20494;-61
2022/09/01 01:41:28;;;;;;;11.90;7.90;;;15.50;99.90;;;;;;4128605;28;20096;-61
2022/09/01 01:43:30;;;;;;;12.20;7.32;;;15.60;99.90;;;;;;4127686;28;20704;-61
2022/09/01 01:45:31;;;;;;;15.02;8.65;;;15.60;99.90;;;;;;4128743;28;20026;-61
2022/09/01 01:47:32;;;;;;;10.55;7.63;;;15.60;99.90;;;;;;4129233;28;20092;-60
2022/09/01 01:49:34;;;;;;;13.73;7.63;;;15.50;99.90;;;;;;4128161;28;20466;-60
2022/09/01 01:51:36;;;;;;;15.13;7.95;;;15.50;99.90;;;;;;4128278;28;20108;-60
2022/09/01 01:53:37;;;;;;;11.05;7.13;;;15.40;99.90;;;;;;4128143;28;20035;-61
2022/09/01 01:55:40;;;;;;;10.38;7.03;;;15.40;99.90;;;;;;4128891;28;20042;-61
2022/09/01 01:57:48;;;;;;;9.85;7.45;;;15.40;99.90;;;;;;4128223;28;20018;-61
2022/09/01 01:59:49;;;;;;;15.23;8.23;;;15.40;99.90;;;;;;4128620;28;20050;-59
2022/09/01 02:01:51;;;;;;;11.13;7.95;;;15.40;99.90;;;;;;4127764;28;20077;-60
2022/09/01 02:03:53;;;;;;;12.65;7.93;;;15.40;99.90;;;;;;4119923;28;20035;-62
2022/09/01 02:05:55;;;;;;;12.43;8.15;;;15.40;99.90;;;;;;4128448;28;20053;-61
2022/09/01 02:08:03;;;;;;;15.27;7.65;;;15.40;99.90;;;;;;4128052;28;20026;-61
2022/09/01 02:10:04;;;;;;;15.95;7.80;;;15.40;99.90;;;;;;4122536;28;20039;-61
2022/09/01 02:12:07;;;;;;;12.05;8.25;;;15.30;99.90;;;;;;4127088;28;20030;-60
2022/09/01 02:14:08;;;;;;;11.35;7.00;;;15.20;99.90;;;;;;4126276;28;20093;-60
2022/09/01 02:16:13;;;;;;;13.52;8.82;;;15.20;99.90;;;;;;4128166;28;20133;-60
2022/09/01 02:18:23;;;;;;;12.30;8.02;;;15.30;99.90;;;;;;4126600;28;20034;-60
2022/09/01 02:20:28;;;;;;;16.08;7.30;;;15.20;99.90;;;;;;4128094;28;20085;-61
2022/09/01 02:22:29;;;;;;;12.15;7.82;;;15.20;99.90;;;;;;4128604;28;20422;-60
2022/09/01 02:24:30;;;;;;;11.98;7.78;;;15.20;99.90;;;;;;4127720;28;20034;-61
2022/09/01 02:26:38;;;;;;;17.15;9.18;;;15.10;99.90;;;;;;4128591;28;20077;-60
2022/09/01 02:28:41;;;;;;;12.45;8.85;;;15.10;99.90;;;;;;4125199;28;20039;-61
2022/09/01 02:30:44;;;;;;;15.25;9.38;;;15.10;99.90;;;;;;4127273;28;20039;-62
2022/09/01 02:32:46;;;;;;;14.38;8.70;;;15.10;99.90;;;;;;4126888;28;20050;-62
2022/09/01 02:34:52;;;;;;;13.57;8.82;;;15.10;99.90;;;;;;4128410;28;20027;-61
2022/09/01 02:36:55;;;;;;;15.45;8.68;;;15.10;99.90;;;;;;4127856;28;20038;-61
2022/09/01 02:38:57;;;;;;;16.48;8.48;;;15.10;99.90;;;;;;4127380;28;20038;-60
2022/09/01 02:41:00;;;;;;;11.52;7.47;;;15.10;99.90;;;;;;4127192;28;20440;-61
2022/09/01 02:43:02;;;;;;;15.88;8.13;;;15.10;99.90;;;;;;4120537;28;20018;-61
2022/09/01 02:45:06;;;;;;;14.73;8.13;;;15.10;99.90;;;;;;4126899;28;20092;-61
2022/09/01 02:47:08;;;;;;;13.82;7.88;;;15.00;99.90;;;;;;4127923;28;20027;-61
2022/09/01 02:49:16;;;;;;;11.55;8.88;;;14.90;99.90;;;;;;4127681;28;20360;-60
2022/09/01 02:51:20;;;;;;;15.65;10.45;;;14.90;99.90;;;;;;4127648;28;20030;-60
2022/09/01 02:53:21;;;;;;;13.27;9.32;;;14.90;99.90;;;;;;4128189;28;20046;-60
2022/09/01 02:55:22;;;;;;;16.77;9.32;;;14.80;99.90;;;;;;4127408;28;20084;-62
2022/09/01 02:57:23;;;;;;;13.68;9.25;;;14.80;99.90;;;;;;4127252;28;20038;-61
2022/09/01 02:59:27;;;;;;;16.30;9.30;;;14.80;99.90;;;;;;4127190;28;20466;-62
2022/09/01 03:01:31;;;;;;;14.40;9.50;;;14.90;99.90;;;;;;4128078;28;20356;-61
2022/09/01 03:03:34;;;;;;;16.52;8.95;;;14.90;99.90;;;;;;4127159;28;20034;-61
2022/09/01 03:05:38;;;;;;;13.55;8.70;;;15.00;99.90;;;;;;4128229;28;20030;-61
2022/09/01 03:07:40;;;;;;;20.52;10.68;;;15.10;99.90;;;;;;4127358;28;20128;-61
2022/09/01 03:09:42;;;;;;;13.55;10.10;;;15.10;99.90;;;;;;4128160;28;20042;-61
2022/09/01 03:11:46;;;;;;;14.98;9.32;;;15.10;99.90;;;;;;4124870;28;20364;-60
2022/09/01 03:13:47;;;;;;;13.38;8.52;;;15.10;99.90;;;;;;4125237;28;20081;-63
2022/09/01 03:15:50;;;;;;;15.15;9.68;;;15.10;99.90;;;;;;4127530;28;20089;-61
2022/09/01 03:17:52;;;;;;;13.85;9.20;;;15.10;99.90;;;;;;4127291;28;20042;-61
2022/09/01 03:19:53;;;;;;;13.70;8.88;;;15.10;99.90;;;;;;4127255;28;20034;-61
2022/09/01 03:21:58;;;;;;;13.30;9.13;;;15.20;99.90;;;;;;4127717;28;20042;-62
2022/09/01 03:24:02;;;;;;;19.67;9.88;;;15.20;99.90;;;;;;4127355;28;20475;-61
2022/09/01 03:26:04;;;;;;;13.70;8.38;;;15.30;99.90;;;;;;4127543;28;20038;-61
2022/09/01 03:28:05;;;;;;;12.43;8.88;;;15.30;99.90;;;;;;4126492;28;20038;-61
2022/09/01 03:30:07;;;;;;;11.30;6.78;;;15.30;99.90;;;;;;4127236;28;20026;-61
2022/09/01 03:32:08;;;;;;;13.13;8.15;;;15.40;99.90;;;;;;4127506;28;20422;-61
2022/09/01 03:34:09;;;;;;;11.57;8.07;;;15.40;99.90;;;;;;4127144;28;20030;-61
2022/09/01 03:36:18;;;;;;;12.90;8.55;;;15.40;99.90;;;;;;4127524;28;20475;-62
2022/09/01 03:38:23;;;;;;;10.63;8.23;;;15.40;99.90;;;;;;4126823;28;20031;-61
2022/09/01 03:40:26;;;;;;;13.10;8.48;;;15.40;99.90;;;;;;4126403;28;20096;-61
2022/09/01 03:42:28;;;;;;;17.48;9.55;;;15.40;99.90;;;;;;4125219;28;20085;-62
2022/09/01 03:44:32;;;;;;;14.57;8.98;;;15.40;99.90;;;;;;4129320;28;20523;-62
2022/09/01 03:46:34;;;;;;;15.52;10.20;;;15.40;99.90;;;;;;4125935;28;20463;-61
2022/09/01 03:48:36;;;;;;;17.17;9.98;;;15.40;99.90;;;;;;4130413;28;20371;-62
2022/09/01 03:50:44;;;;;;;15.15;10.35;;;15.30;99.90;;;;;;4129634;28;20034;-61
2022/09/01 03:52:52;;;;;;;14.68;9.13;;;15.30;99.90;;;;;;4130594;28;20495;-65
2022/09/01 03:54:54;;;;;;;16.63;11.02;;;15.20;99.90;;;;;;4129808;28;20026;-63
2022/09/01 03:56:58;;;;;;;16.50;9.68;;;15.20;99.90;;;;;;4130553;28;20046;-64
2022/09/01 03:59:00;;;;;;;16.00;10.77;;;15.20;99.90;;;;;;4128351;28;20092;-63
2022/09/01 04:01:01;;;;;;;20.58;11.00;;;15.20;99.90;;;;;;4130245;28;20034;-62
2022/09/01 04:03:06;;;;;;;17.33;11.10;;;15.10;99.90;;;;;;4130056;28;20038;-65
2022/09/01 04:05:08;;;;;;;20.23;11.25;;;15.10;99.90;;;;;;4130555;28;20516;-63
2022/09/01 04:07:09;;;;;;;18.65;11.82;;;15.10;99.90;;;;;;4129908;28;20080;-63
2022/09/01 04:09:11;;;;;;;17.90;10.63;;;15.10;99.90;;;;;;4129907;28;20081;-62
2022/09/01 04:11:17;;;;;;;20.15;10.90;;;15.30;99.90;;;;;;4129988;28;20034;-63
2022/09/01 04:13:22;;;;;;;17.60;12.02;;;15.30;99.90;;;;;;4127234;28;20100;-63
2022/09/01 04:15:25;;;;;;;20.02;11.80;;;15.40;99.90;;;;;;4126319;28;20034;-63
2022/09/01 04:19:46;;;;;;;18.77;11.27;;;15.50;99.90;;;;;;4129049;28;20085;-62
2022/09/01 04:21:49;;;;;;;23.27;13.60;;;15.50;99.90;;;;;;4126113;28;20042;-61
2022/09/01 04:23:50;;;;;;;21.55;13.90;;;15.60;99.90;;;;;;4130281;28;20096;-63
2022/09/01 04:25:55;;;;;;;20.33;13.10;;;15.60;99.90;;;;;;4129517;28;20042;-67
2022/09/01 04:27:57;;;;;;;18.73;12.50;;;15.60;99.90;;;;;;4127570;28;20077;-64
2022/09/01 04:30:00;;;;;;;18.08;12.70;;;15.60;99.90;;;;;;4129026;28;20026;-64
2022/09/01 04:32:08;;;;;;;23.13;12.55;;;15.70;99.90;;;;;;4128391;28;20038;-65
2022/09/01 04:34:12;;;;;;;19.08;12.55;;;15.70;99.90;;;;;;4129245;28;20069;-68
2022/09/01 04:36:22;;;;;;;15.60;11.52;;;15.80;99.90;;;;;;4130098;28;20038;-63
2022/09/01 04:38:23;;;;;;;17.98;11.95;;;15.80;99.90;;;;;;4129139;28;20022;-61
2022/09/01 04:40:26;;;;;;;21.38;11.80;;;15.90;99.90;;;;;;4130114;28;20038;-62
2022/09/01 04:42:31;;;;;;;20.23;13.80;;;15.90;99.90;;;;;;4128990;28;20477;-63
2022/09/01 04:44:34;;;;;;;26.17;13.40;;;15.90;99.90;;;;;;4128274;28;20506;-64
2022/09/01 04:46:41;;;;;;;22.92;13.32;;;15.90;99.90;;;;;;4113311;28;20030;-62
2022/09/01 04:48:44;;;;;;;26.17;13.55;;;15.80;99.90;;;;;;4119280;28;20018;-60
2022/09/01 04:50:48;;;;;;;23.58;13.57;;;15.90;99.90;;;;;;4128326;28;20101;-63
2022/09/01 04:52:49;;;;;;;22.33;11.88;;;15.90;99.90;;;;;;4128367;28;20992;-62
2022/09/01 04:54:51;;;;;;;19.65;12.35;;;15.90;99.90;;;;;;4128001;28;20097;-60
2022/09/01 04:56:53;;;;;;;25.75;13.00;;;15.80;99.90;;;;;;4128907;28;20069;-61
2022/09/01 04:58:54;;;;;;;21.70;11.50;;;15.90;99.90;;;;;;4127800;28;20474;-61
2022/09/01 05:00:56;;;;;;;18.33;9.85;;;16.00;99.90;;;;;;4128142;28;20019;-65
2022/09/01 05:03:03;;;;;;;12.90;9.00;;;16.10;99.90;;;;;;4129424;28;20034;-61
2022/09/01 05:05:11;;;;;;;22.80;10.90;;;16.20;99.90;;;;;;4129272;28;20053;-61
2022/09/01 05:07:14;;;;;;;19.38;12.00;;;16.30;99.90;;;;;;4129465;28;20018;-60
2022/09/01 05:09:17;;;;;;;21.40;12.93;;;16.40;99.90;;;;;;4128882;28;20042;-63
2022/09/01 05:11:19;;;;;;;27.40;13.25;;;16.50;99.90;;;;;;4126247;28;20027;-61
2022/09/01 05:13:22;;;;;;;29.30;14.15;;;16.50;99.90;;;;;;4127621;28;20030;-60
2022/09/01 05:15:23;;;;;;;30.42;14.60;;;16.50;99.90;;;;;;4129548;28;20065;-61
2022/09/01 05:17:27;;;;;;;17.85;9.85;;;16.60;99.90;;;;;;4128779;28;20428;-61
2022/09/01 05:19:30;;;;;;;15.75;8.80;;;16.70;99.90;;;;;;4129803;28;20038;-61
2022/09/01 05:21:31;;;;;;;16.85;7.75;;;16.70;99.90;;;;;;4128403;28;20089;-62
2022/09/01 05:23:32;;;;;;;12.82;7.35;;;16.80;99.90;;;;;;4127789;28;20023;-62
2022/09/01 05:25:42;;;;;;;15.13;6.72;;;17.20;99.90;;;;;;4127539;28;20096;-61
2022/09/01 05:27:48;;;;;;;;;;;17.70;99.90;;;;;;4129530;28;20073;-62
2022/09/01 05:29:49;;;;;;;10.45;7.47;;;18.20;99.90;;;;;;4128386;28;20325;-61
2022/09/01 05:31:51;;;;;;;22.63;8.75;;;18.80;99.90;;;;;;4128712;28;20035;-61
2022/09/01 05:33:54;;;;;;;14.95;7.38;;;19.30;99.90;;;;;;4127085;28;20474;-62
2022/09/01 05:36:00;;;;;;;15.85;8.07;;;19.80;99.90;;;;;;4128834;28;20045;-61
2022/09/01 05:38:01;;;;;;;14.55;7.80;;;20.40;99.90;;;;;;4128395;28;20080;-61
2022/09/01 05:40:14;;;;;;;14.18;7.65;;;20.90;99.90;;;;;;4128511;28;20101;-62
2022/09/01 05:42:16;;;;;;;19.17;8.90;;;21.10;99.90;;;;;;4128149;28;20033;-61
2022/09/01 05:44:17;;;;;;;13.00;8.00;;;21.00;99.90;;;;;;4127858;28;20174;-62
2022/09/01 05:46:22;;;;;;;13.95;8.80;;;21.50;99.90;;;;;;4127898;28;20080;-61
2022/09/01 05:48:24;;;;;;;15.75;8.30;;;22.10;99.90;;;;;;4128120;28;20116;-61
2022/09/01 05:50:27;;;;;;;15.30;8.80;;;22.20;99.90;;;;;;4128494;28;20034;-62
2022/09/01 05:52:32;;;;;;;13.82;8.90;;;22.30;99.90;;;;;;4128100;28;20042;-61
2022/09/01 05:54:34;;;;;;;15.27;8.35;;;21.70;99.90;;;;;;4128735;28;20545;-61
2022/09/01 05:56:42;;;;;;;20.98;12.02;;;22.10;99.90;;;;;;4127865;28;20080;-63
2022/09/01 05:58:46;;;;;;;15.98;10.65;;;22.30;99.90;;;;;;4128798;28;20092;-61
2022/09/01 06:00:48;;;;;;;18.35;9.60;;;22.20;99.90;;;;;;4126913;28;20124;-61
2022/09/01 06:02:50;;;;;;;21.77;9.60;;;22.10;99.90;;;;;;4128663;28;20096;-62
2022/09/01 06:04:55;;;;;;;16.60;9.00;;;22.00;99.90;;;;;;4127680;28;20435;-61
2022/09/01 06:06:57;;;;;;;16.98;10.27;;;22.00;99.90;;;;;;4128484;28;20038;-61
2022/09/01 06:08:58;;;;;;;23.00;11.13;;;21.80;99.90;;;;;;4127797;28;20096;-63
2022/09/01 06:11:00;;;;;;;20.55;11.35;;;21.60;99.90;;;;;;4127718;28;20454;-62
2022/09/01 06:13:01;;;;;;;23.35;12.40;;;21.60;99.90;;;;;;4127924;28;20112;-62
2022/09/01 06:15:06;;;;;;;26.67;13.30;;;21.50;99.90;;;;;;4128659;28;20438;-62
2022/09/01 06:17:10;;;;;;;24.48;13.75;;;21.60;99.90;;;;;;4127761;28;20077;-62
2022/09/01 06:19:11;;;;;;;24.63;13.40;;;21.60;99.90;;;;;;4128166;28;20038;-62
2022/09/01 06:21:15;;;;;;;23.02;13.25;;;21.30;99.90;;;;;;4125446;28;20101;-61
2022/09/01 06:23:17;;;;;;;27.05;14.25;;;21.00;99.90;;;;;;4127502;28;20109;-64
2022/09/01 06:25:21;;;;;;;33.45;14.20;;;20.80;99.90;;;;;;4127988;28;20451;-61
2022/09/01 06:27:22;;;;;;;23.70;14.10;;;20.80;99.90;;;;;;4127552;28;20034;-62
2022/09/01 06:29:23;;;;;;;24.80;14.32;;;21.10;99.90;;;;;;4127857;28;20038;-61
2022/09/01 06:31:27;;;;;;;28.98;15.75;;;20.90;99.90;;;;;;4127343;28;20042;-61
2022/09/01 06:33:28;;;;;;;24.38;14.60;;;20.90;99.90;;;;;;4128096;28;20092;-62
2022/09/01 06:35:29;;;;;;;29.35;17.05;;;20.90;99.90;;;;;;4125709;28;20114;-64
2022/09/01 06:37:31;;;;;;;36.97;16.20;;;21.10;99.90;;;;;;4128200;28;20030;-62
2022/09/01 06:39:33;;;;;;;28.90;16.85;;;21.20;99.90;;;;;;4126981;28;20434;-63
2022/09/01 06:41:36;;;;;;;28.85;16.45;;;21.10;99.90;;;;;;4128386;28;20537;-63
2022/09/01 06:43:41;;;;;;;32.10;16.58;;;21.30;99.90;;;;;;4117811;28;20097;-61
2022/09/01 06:45:48;;;;;;;27.17;16.52;;;21.30;99.90;;;;;;4112243;28;20074;-62
2022/09/01 06:47:51;;;;;;;33.28;17.45;;;21.40;99.90;;;;;;4111238;28;20088;-63
2022/09/01 06:49:54;;;;;;;29.83;16.73;;;21.20;99.90;;;;;;4117621;28;20026;-62
2022/09/01 06:51:55;;;;;;;32.25;16.27;;;21.20;99.90;;;;;;4126977;28;20072;-61
2022/09/01 06:53:58;;;;;;;41.67;19.38;;;21.20;99.90;;;;;;4127829;28;20449;-62
2022/09/01 06:55:59;;;;;;;31.05;18.92;;;21.10;99.90;;;;;;4126995;28;20034;-62
2022/09/01 06:58:04;;;;;;;37.33;20.92;;;20.80;99.90;;;;;;4127185;28;20494;-62
2022/09/01 07:00:19;;;;;;;36.95;21.02;;;20.30;99.90;;;;;;4127378;28;20069;-63
2022/09/01 07:02:21;;;;;;;37.78;22.15;;;19.90;99.90;;;;;;4127543;28;20046;-63
2022/09/01 07:04:22;;;;;;;39.92;22.58;;;20.00;99.90;;;;;;4126039;28;20108;-61
2022/09/01 07:06:28;;;;;;;36.60;18.95;;;20.10;99.90;;;;;;4126966;28;20367;-61
2022/09/01 07:08:30;;;;;;;27.88;18.60;;;20.10;99.90;;;;;;4127814;28;20105;-61
2022/09/01 07:10:32;;;;;;;26.38;16.95;;;20.00;99.90;;;;;;4127011;28;20116;-60
2022/09/01 07:12:34;;;;;;;26.58;16.88;;;19.80;99.90;;;;;;4127379;28;20084;-62
2022/09/01 07:14:35;;;;;;;28.58;16.33;;;19.70;99.90;;;;;;4126332;28;20410;-64
2022/09/01 07:16:39;;;;;;;21.23;14.70;;;19.60;99.90;;;;;;4127991;28;20112;-62
2022/09/01 07:18:41;;;;;;;18.92;13.82;;;19.50;99.90;;;;;;4127158;28;20428;-61
2022/09/01 07:20:43;;;;;;;24.45;14.13;;;19.50;99.90;;;;;;4131429;28;20045;-63
2022/09/01 07:22:44;;;;;;;20.35;12.52;;;19.60;99.90;;;;;;4129789;28;20065;-61
2022/09/01 07:24:45;;;;;;;20.10;12.38;;;19.50;99.90;;;;;;4131005;28;20077;-62
2022/09/01 07:26:49;;;;;;;17.15;12.23;;;19.60;99.90;;;;;;4129934;28;20030;-62
2022/09/01 07:28:51;;;;;;;19.25;12.57;;;20.00;99.90;;;;;;4130809;28;20069;-63
2022/09/01 07:30:52;;;;;;;18.08;12.00;;;20.20;99.90;;;;;;4130092;28;20132;-62
2022/09/01 07:32:54;;;;;;;14.85;10.77;;;20.10;99.90;;;;;;4130832;28;20145;-62
2022/09/01 07:34:57;;;;;;;15.63;10.63;;;20.30;99.90;;;;;;4129236;28;20093;-62
2022/09/01 07:36:58;;;;;;;14.80;10.65;;;20.40;99.90;;;;;;4130029;28;20572;-62
2022/09/01 07:39:00;;;;;;;16.70;10.07;;;20.40;99.90;;;;;;4130169;28;20434;-62
2022/09/01 07:41:01;;;;;;;12.57;10.00;;;20.60;99.90;;;;;;4130107;28;20074;-66
2022/09/01 07:43:07;;;;;;;14.00;10.50;;;20.80;99.90;;;;;;4130428;28;20022;-61
2022/09/01 07:45:10;;;;;;;15.07;10.02;;;20.80;99.90;;;;;;4129193;28;20056;-60
2022/09/01 07:47:13;;;;;;;13.45;9.82;;;20.60;99.90;;;;;;4131072;28;20026;-62
2022/09/01 07:49:14;;;;;;;12.00;9.13;;;20.60;99.90;;;;;;4128888;28;20050;-63
2022/09/01 07:51:18;;;;;;;11.95;9.48;;;20.60;99.90;;;;;;4130678;28;20034;-61
2022/09/01 07:53:23;;;;;;;12.25;8.65;;;20.70;99.90;;;;;;4129798;28;20046;-62
2022/09/01 07:55:27;;;;;;;12.30;8.65;;;21.00;99.90;;;;;;4130844;28;20023;-62
2022/09/01 07:57:28;;;;;;;12.55;8.95;;;21.00;99.90;;;;;;4129875;28;20100;-61
2022/09/01 07:59:29;;;;;;;11.73;8.70;;;21.10;99.90;;;;;;4130708;28;20057;-62
2022/09/01 08:01:31;;;;;;;8.93;7.40;;;21.20;99.90;;;;;;4129337;28;20168;-60
2022/09/01 08:03:32;;;;;;;8.73;7.55;;;21.50;99.90;;;;;;4129756;28;20038;-61
2022/09/01 08:05:33;;;;;;;12.15;7.90;;;21.70;99.90;;;;;;4129471;28;20426;-62
2022/09/01 08:07:35;;;;;;;10.57;7.07;;;22.00;99.90;;;;;;4129614;28;20062;-61
2022/09/01 08:09:37;;;;;;;8.27;6.57;;;22.00;99.90;;;;;;4128665;28;20047;-61
2022/09/01 08:11:38;;;;;;;8.05;6.38;;;22.10;99.90;;;;;;4129537;28;20148;-62
2022/09/01 08:13:40;;;;;;;8.57;5.80;;;22.50;99.90;;;;;;4129069;28;20046;-61
2022/09/01 08:15:42;;;;;;;10.45;6.03;;;22.80;99.90;;;;;;4129690;28;20120;-62
2022/09/01 08:17:43;;;;;;;6.60;4.55;;;23.10;99.90;;;;;;4128627;28;20096;-63
2022/09/01 08:19:45;;;;;;;5.15;4.35;;;23.30;99.90;;;;;;4129127;28;20069;-62
2022/09/01 08:21:47;;;;;;;4.82;4.10;;;23.60;99.90;;;;;;4129724;28;20043;-61
2022/09/01 08:23:50;;;;;;;7.65;5.40;;;23.60;99.90;;;;;;4129202;28;20089;-61
2022/09/01 08:25:52;;;;;;;6.65;4.68;;;23.50;99.90;;;;;;4129879;28;20057;-60
2022/09/01 08:27:53;;;;;;;7.03;5.00;;;23.50;99.90;;;;;;4129089;28;20042;-61
2022/09/01 08:29:55;;;;;;;8.00;4.63;;;23.60;99.90;;;;;;4130103;28;20098;-61
2022/09/01 08:31:57;;;;;;;10.35;4.30;;;23.60;99.90;;;;;;4129107;28;20549;-61
2022/09/01 08:33:59;;;;;;;5.13;4.63;;;23.80;99.90;;;;;;4128909;28;20074;-61
2022/09/01 08:36:00;;;;;;;11.70;4.80;;;23.80;99.90;;;;;;4128634;28;20457;-62
2022/09/01 08:38:01;;;;;;;6.35;4.13;;;23.80;99.90;;;;;;4129688;28;20034;-62
2022/09/01 08:40:05;;;;;;;6.55;4.00;;;23.70;99.90;;;;;;4129016;28;20046;-60
2022/09/01 08:42:17;;;;;;;5.82;4.65;;;23.60;99.90;;;;;;4129808;28;20038;-61
2022/09/01 08:44:36;;;;;;;9.65;4.68;;;23.50;99.90;;;;;;4128937;28;20038;-62
2022/09/01 08:46:41;;;;;;;6.97;4.53;;;23.20;99.90;;;;;;4128668;28;20039;-61
2022/09/01 08:48:55;;;;;;;5.97;4.25;;;23.30;99.90;;;;;;4128113;28;20030;-61
2022/09/01 08:51:26;;;;;;;5.72;3.78;;;23.40;99.90;;;;;;4129221;28;20096;-61
2022/09/01 08:53:40;;;;;;;5.15;4.65;;;23.60;99.90;;;;;;4128028;28;20046;-61
2022/09/01 08:55:46;;;;;;;6.45;4.18;;;23.70;99.90;;;;;;4129906;28;20475;-61
2022/09/01 08:57:50;;;;;;;5.85;4.68;;;23.70;99.90;;;;;;4128495;28;20117;-62
2022/09/01 08:59:52;;;;;;;7.65;4.30;;;23.50;99.90;;;;;;4129568;28;20030;-63
2022/09/01 09:02:06;;;;;;;5.90;4.10;;;23.40;99.90;;;;;;4127816;28;20092;-61
2022/09/01 09:04:23;;;;;;;4.72;3.80;;;23.40;99.90;;;;;;4129610;28;20026;-62
2022/09/01 09:06:45;;;;;;;4.53;4.07;;;23.40;99.90;;;;;;4128521;28;20030;-62
2022/09/01 09:08:47;;;;;;;7.13;4.20;;;23.60;99.90;;;;;;4129468;28;20042;-62
2022/09/01 09:10:59;;;;;;;5.82;4.18;;;23.70;99.90;;;;;;4128589;28;20027;-62
2022/09/01 09:13:15;;;;;;;7.47;4.03;;;23.80;99.90;;;;;;4129361;28;20026;-62
2022/09/01 09:15:30;;;;;;;6.32;3.80;;;23.90;99.90;;;;;;4128286;28;20046;-62
2022/09/01 09:17:39;;;;;;;5.68;3.83;;;23.80;99.90;;;;;;4129215;28;20054;-61
2022/09/01 09:19:42;;;;;;;7.97;3.83;;;23.80;99.90;;;;;;4128359;28;20022;-61
2022/09/01 09:21:47;;;;;;;4.88;4.05;;;23.80;99.90;;;;;;4129595;28;20442;-61
2022/09/01 09:23:57;;;;;;;4.30;3.90;;;23.70;99.90;;;;;;4128386;28;20109;-61
2022/09/01 09:25:59;;;;;;;6.45;3.80;;;23.90;99.90;;;;;;4129216;28;20092;-62
2022/09/01 09:28:00;;;;;;;4.68;4.28;;;24.00;99.90;;;;;;4127927;28;20023;-63
2022/09/01 09:30:04;;;;;;;4.35;3.67;;;23.90;99.90;;;;;;4127647;28;20101;-61
2022/09/01 09:32:09;;;;;;;6.35;3.60;;;23.90;99.90;;;;;;4125848;28;20077;-62
2022/09/01 09:34:34;;;;;;;7.20;3.50;;;23.90;99.90;;;;;;4128955;28;20073;-62
2022/09/01 09:36:36;;;;;;;4.43;3.78;;;23.90;99.90;;;;;;4127618;28;20054;-63
2022/09/01 09:38:37;;;;;;;5.60;3.65;;;23.90;99.90;;;;;;4128943;28;20387;-61
2022/09/01 09:40:54;;;;;;;4.28;3.85;;;23.80;99.90;;;;;;4127625;28;20498;-61
2022/09/01 09:42:55;;;;;;;4.20;3.75;;;23.90;99.90;;;;;;4128539;28;20085;-61
2022/09/01 09:44:57;;;;;;;5.07;3.70;;;24.10;99.90;;;;;;4127715;28;20454;-61
2022/09/01 09:47:00;;;;;;;5.13;3.42;;;24.30;99.90;;;;;;4128343;28;20022;-62
2022/09/01 09:49:18;;;;;;;4.60;3.67;;;24.50;99.90;;;;;;4127967;28;20084;-63
2022/09/01 09:51:21;;;;;;;4.30;3.90;;;24.60;99.90;;;;;;4128544;28;20430;-62
2022/09/01 09:53:31;;;;;;;4.47;3.90;;;24.80;99.90;;;;;;4127993;28;20054;-62
2022/09/01 09:55:32;;;;;;;;;;;25.00;99.90;;;;;;4128696;28;20116;-62
2022/09/01 09:57:39;;;;;;;5.38;3.85;;;25.00;99.90;;;;;;4127999;28;19921;-63
2022/09/01 09:59:58;;;;;;;5.15;3.30;;;25.00;99.90;;;;;;4128192;28;20105;-63
2022/09/01 10:02:16;;;;;;;5.22;3.80;;;24.90;99.90;;;;;;4126833;28;20030;-61
2022/09/01 10:04:36;;;;;;;3.97;3.40;;;24.60;99.90;;;;;;4128165;28;20030;-60
2022/09/01 10:06:45;;;;;;;9.90;3.28;;;24.60;99.90;;;;;;4126209;28;20038;-63
2022/09/01 10:08:46;;;;;;;3.90;3.42;;;24.60;99.90;;;;;;4128413;28;20038;-64
2022/09/01 10:10:49;;;;;;;4.03;3.03;;;24.50;99.90;;;;;;4126831;28;20089;-63
2022/09/01 10:12:53;;;;;;;5.57;3.35;;;24.60;99.90;;;;;;4126752;28;20038;-64
2022/09/01 10:14:59;;;;;;;3.35;2.90;;;24.70;99.90;;;;;;4127600;28;20026;-61
2022/09/01 10:17:09;;;;;;;4.07;2.92;;;24.80;99.90;;;;;;4127025;28;20118;-61
2022/09/01 10:19:13;;;;;;;7.82;3.05;;;24.90;99.90;;;;;;4127292;28;20042;-61
2022/09/01 10:21:22;;;;;;;4.13;3.00;;;24.80;99.90;;;;;;4125508;28;20041;-62
2022/09/01 10:23:26;;;;;;;3.33;2.90;;;25.00;99.90;;;;;;4127809;28;20027;-62
2022/09/01 10:25:31;;;;;;;3.92;2.88;;;25.10;99.90;;;;;;4127763;28;20038;-63
2022/09/01 10:27:36;;;;;;;3.55;2.92;;;25.20;99.90;;;;;;4127852;28;20046;-61
2022/09/01 10:29:42;;;;;;;4.40;3.20;;;25.20;99.90;;;;;;4127251;28;20104;-66
2022/09/01 10:31:43;;;;;;;5.78;2.60;;;25.40;99.90;;;;;;4128062;28;20449;-62
2022/09/01 10:33:45;;;;;;;2.40;2.20;;;25.50;99.90;;;;;;4127285;28;20022;-62
2022/09/01 10:35:52;;;;;;;5.28;2.58;;;25.40;99.90;;;;;;4125591;28;20026;-61
2022/09/01 10:37:55;;;;;;;5.90;3.05;;;25.40;99.90;;;;;;4126307;28;20487;-63
2022/09/01 10:40:28;;;;;;;3.65;3.03;;;25.30;99.90;;;;;;4128068;28;20040;-62
2022/09/01 10:42:29;;;;;;;7.72;2.78;;;25.30;99.90;;;;;;4114962;28;20058;-61
2022/09/01 10:44:33;;;;;;;6.68;3.10;;;25.20;99.90;;;;;;4127575;28;20050;-64
2022/09/01 10:46:39;;;;;;;3.35;3.05;;;25.20;99.90;;;;;;4127749;28;20104;-64